Weather at Narita International Airport

Public forecast

Using degrees Celsius for public forecast. Weather courtesy of forecast.io.

Current aviation weather report (METAR) for Narita International Airport

Retrieved 2021/07/29 08:00 UTC (28 minutes ago):

RJAA 290800Z 16014KT 9999 FEW025 BKN/// 28/24 Q1001 NOSIG

Aviation forecast (TAF) for Narita International Airport

Retrieved 2021/07/29 06:30 UTC (2 hours ago):

TAF RJAA 290505Z 2906/3012 16010KT 8000 -SHRA FEW015 BKN030 TEMPO 2906/2909 4000 -TSRA BR FEW015 FEW020CB BKN030 TEMPO 3000/3006 4000 -TSRA BR FEW015 FEW020CB BKN030